Time;durP1;ratioP1;P1;durP2;ratioP2;P2;SDS_P1;SDS_P2;PMS_P1;PMS_P2;Temp;Humidity;BMP_temperature;BMP_pressure;BME280_temperature;BME280_humidity;BME280_pressure;Samples;Min_cycle;Max_cycle;Signal;HPM_P1;HPM_P2
2022/10/27 00:01:38;;;;;;;8.30;4.20;;;;;;;;;;5153233;27;20454;-73
2022/10/27 00:04:05;;;;;;;7.00;4.40;;;;;;;;;;5155025;27;21019;-73
2022/10/27 00:06:32;;;;;;;7.20;3.70;;;;;;;;;;5155307;27;20463;-73
2022/10/27 00:08:59;;;;;;;7.90;5.20;;;;;;;;;;5155344;27;20455;-73
2022/10/27 00:11:28;;;;;;;9.50;5.33;;;;;;;;;;5154460;27;20858;-73
2022/10/27 00:13:55;;;;;;;11.87;6.17;;;;;;;;;;5154640;27;20447;-73
2022/10/27 00:16:22;;;;;;;14.20;5.50;;;;;;;;;;5155136;27;20838;-73
2022/10/27 00:18:49;;;;;;;6.40;4.83;;;;;;;;;;5155086;27;20462;-73
2022/10/27 00:21:17;;;;;;;6.77;4.97;;;;;;;;;;5155224;27;20448;-73
2022/10/27 00:23:44;;;;;;;8.33;4.90;;;;;;;;;;5154201;27;20498;-73
2022/10/27 00:26:12;;;;;;;7.77;5.50;;;;;;;;;;5155010;27;20464;-73
2022/10/27 00:28:41;;;;;;;10.33;4.50;;;;;;;;;;5154822;27;20816;-73
2022/10/27 00:31:11;;;;;;;8.80;5.60;;;;;;;;;;5152857;27;20451;-73
2022/10/27 00:33:38;;;;;;;9.83;4.90;;;;;;;;;;5154166;27;20451;-73
2022/10/27 00:36:06;;;;;;;7.90;5.20;;;;;;;;;;5152051;27;20482;-73
2022/10/27 00:38:33;;;;;;;7.80;5.23;;;;;;;;;;5154842;27;20448;-73
2022/10/27 00:41:01;;;;;;;15.03;6.00;;;;;;;;;;5154938;27;20801;-73
2022/10/27 00:43:29;;;;;;;8.10;5.33;;;;;;;;;;5153787;27;20459;-73
2022/10/27 00:46:01;;;;;;;11.70;5.30;;;;;;;;;;5154684;27;20475;-73
2022/10/27 00:48:29;;;;;;;14.90;5.50;;;;;;;;;;5154210;27;20505;-73
2022/10/27 00:50:57;;;;;;;15.87;5.90;;;;;;;;;;5154693;27;20443;-73
2022/10/27 00:53:24;;;;;;;9.13;5.17;;;;;;;;;;5154473;27;20455;-73
2022/10/27 00:55:51;;;;;;;7.90;5.57;;;;;;;;;;5153807;27;20971;-73
2022/10/27 00:58:20;;;;;;;13.23;5.77;;;;;;;;;;5154539;27;20959;-73
2022/10/27 01:00:47;;;;;;;7.50;5.60;;;;;;;;;;5154406;27;20511;-73
2022/10/27 01:03:19;;;;;;;10.33;6.90;;;;;;;;;;5154570;27;20450;-73
2022/10/27 01:05:46;;;;;;;5.47;4.50;;;;;;;;;;5151772;27;20467;-73
2022/10/27 01:08:13;;;;;;;8.13;5.80;;;;;;;;;;5154345;27;20455;-73
2022/10/27 01:10:40;;;;;;;10.70;5.20;;;;;;;;;;5151617;27;20452;-73
2022/10/27 01:13:08;;;;;;;9.90;5.20;;;;;;;;;;5154429;27;20783;-73
2022/10/27 01:15:38;;;;;;;13.80;6.60;;;;;;;;;;5153434;27;20470;-72
2022/10/27 01:18:09;;;;;;;10.73;7.90;;;;;;;;;;5154264;27;20478;-72
2022/10/27 01:20:52;;;;;;;9.97;6.57;;;;;;;;;;5154204;27;20925;-72
2022/10/27 01:23:24;;;;;;;10.33;6.43;;;;;;;;;;5154124;27;20447;-72
2022/10/27 01:26:09;;;;;;;7.37;5.87;;;;;;;;;;5150934;27;20463;-73
2022/10/27 01:28:58;;;;;;;15.30;7.13;;;;;;;;;;5154191;27;20447;-73
2022/10/27 01:31:28;;;;;;;7.80;6.80;;;;;;;;;;5153980;27;20458;-73
2022/10/27 01:33:58;;;;;;;10.30;7.13;;;;;;;;;;5153511;27;20453;-73
2022/10/27 01:36:29;;;;;;;10.80;6.90;;;;;;;;;;5154112;27;20972;-73
2022/10/27 01:38:59;;;;;;;10.30;8.07;;;;;;;;;;5154278;27;20450;-73
2022/10/27 01:41:27;;;;;;;8.57;7.50;;;;;;;;;;5151567;27;20447;-73
2022/10/27 01:43:56;;;;;;;13.37;7.60;;;;;;;;;;5153135;27;20851;-73
2022/10/27 01:46:23;;;;;;;9.90;7.03;;;;;;;;;;5151278;27;20475;-73
2022/10/27 01:48:52;;;;;;;13.80;6.73;;;;;;;;;;5154154;27;20781;-73
2022/10/27 01:51:19;;;;;;;12.00;6.60;;;;;;;;;;5153966;27;20440;-73
2022/10/27 01:53:47;;;;;;;9.97;6.70;;;;;;;;;;5153470;27;20443;-73
2022/10/27 01:56:32;;;;;;;13.90;7.87;;;;;;;;;;5153819;27;20491;-73
2022/10/27 01:59:15;;;;;;;8.93;6.50;;;;;;;;;;5140439;27;20455;-73
2022/10/27 02:01:46;;;;;;;9.37;6.50;;;;;;;;;;5157630;27;20959;-73
2022/10/27 02:04:26;;;;;;;10.20;7.03;;;;;;;;;;5157090;27;20491;-73
2022/10/27 02:06:56;;;;;;;13.13;6.27;;;;;;;;;;5157697;27;20979;-73
2022/10/27 02:09:26;;;;;;;10.97;6.17;;;;;;;;;;5157884;27;20956;-73
2022/10/27 02:11:54;;;;;;;9.57;6.27;;;;;;;;;;5157538;27;20460;-73
2022/10/27 02:14:21;;;;;;;19.67;7.43;;;;;;;;;;5156891;27;20454;-73
2022/10/27 02:16:51;;;;;;;11.63;6.13;;;;;;;;;;5155423;27;20971;-73
2022/10/27 02:19:22;;;;;;;11.90;7.70;;;;;;;;;;5157486;27;20459;-73
2022/10/27 02:21:51;;;;;;;9.93;8.93;;;;;;;;;;5154941;27;20458;-73
2022/10/27 02:24:18;;;;;;;25.20;14.40;;;;;;;;;;5154749;27;20497;-73
2022/10/27 02:26:48;;;;;;;12.07;8.47;;;;;;;;;;5157279;27;20467;-73
2022/10/27 02:29:17;;;;;;;11.33;8.50;;;;;;;;;;5157410;27;20450;-73
2022/10/27 02:31:48;;;;;;;19.10;8.30;;;;;;;;;;5157328;27;20928;-73
2022/10/27 02:34:16;;;;;;;12.27;7.53;;;;;;;;;;5156634;27;20455;-73
2022/10/27 02:36:44;;;;;;;8.20;6.20;;;;;;;;;;5157029;27;20471;-73
2022/10/27 02:39:11;;;;;;;11.00;7.60;;;;;;;;;;5156849;27;20445;-73
2022/10/27 02:41:39;;;;;;;19.00;7.23;;;;;;;;;;5157127;27;20581;-73
2022/10/27 02:44:06;;;;;;;9.33;6.10;;;;;;;;;;5156262;27;20448;-73
2022/10/27 02:46:33;;;;;;;17.87;11.67;;;;;;;;;;5156552;27;20464;-73
2022/10/27 02:49:00;;;;;;;13.67;9.73;;;;;;;;;;5157299;27;20956;-73
2022/10/27 02:51:27;;;;;;;7.73;6.83;;;;;;;;;;5154676;27;20470;-73
2022/10/27 02:53:56;;;;;;;11.30;6.83;;;;;;;;;;5156363;27;20940;-73
2022/10/27 02:56:23;;;;;;;7.33;6.00;;;;;;;;;;5155371;27;20471;-73
2022/10/27 02:58:50;;;;;;;10.20;6.30;;;;;;;;;;5156645;27;20932;-73
2022/10/27 03:01:17;;;;;;;13.00;6.73;;;;;;;;;;5156682;27;20462;-73
2022/10/27 03:03:44;;;;;;;9.93;6.60;;;;;;;;;;5155884;27;20547;-73
2022/10/27 03:06:11;;;;;;;8.60;6.13;;;;;;;;;;5156536;27;20487;-73
2022/10/27 03:08:38;;;;;;;6.47;5.73;;;;;;;;;;5156409;27;20933;-73
2022/10/27 03:11:07;;;;;;;16.03;10.07;;;;;;;;;;5155891;27;20467;-73
2022/10/27 03:13:34;;;;;;;11.53;7.73;;;;;;;;;;5155778;27;20454;-73
2022/10/27 03:16:01;;;;;;;13.10;6.37;;;;;;;;;;5156225;27;20471;-73
2022/10/27 03:18:28;;;;;;;17.63;7.43;;;;;;;;;;5156410;27;20793;-73
2022/10/27 03:20:55;;;;;;;7.43;6.63;;;;;;;;;;5156224;27;20458;-73
2022/10/27 03:23:23;;;;;;;8.57;7.07;;;;;;;;;;5156167;27;20956;-73
2022/10/27 03:25:50;;;;;;;9.10;6.40;;;;;;;;;;5151112;27;20487;-72
2022/10/27 03:28:18;;;;;;;12.57;7.83;;;;;;;;;;5156188;27;20500;-73
2022/10/27 03:30:46;;;;;;;10.27;7.90;;;;;;;;;;5154071;27;20452;-73
2022/10/27 03:33:13;;;;;;;13.30;8.90;;;;;;;;;;5155941;27;20462;-73
2022/10/27 03:35:40;;;;;;;9.20;6.40;;;;;;;;;;5155252;27;20973;-73
2022/10/27 03:38:07;;;;;;;13.23;7.07;;;;;;;;;;5156130;27;20446;-73
2022/10/27 03:40:35;;;;;;;9.83;7.20;;;;;;;;;;5155816;27;20470;-73
2022/10/27 03:43:02;;;;;;;11.40;8.00;;;;;;;;;;5155960;27;20444;-73
2022/10/27 03:45:30;;;;;;;10.07;7.40;;;;;;;;;;5155030;27;20495;-73
2022/10/27 03:48:01;;;;;;;14.27;8.53;;;;;;;;;;5155896;27;20963;-73
2022/10/27 03:50:28;;;;;;;11.70;9.57;;;;;;;;;;5155732;27;20448;-73
2022/10/27 03:52:55;;;;;;;17.63;11.00;;;;;;;;;;5155693;27;20940;-73
2022/10/27 03:55:22;;;;;;;11.87;8.43;;;;;;;;;;5154877;27;21011;-73
2022/10/27 03:57:50;;;;;;;10.20;7.47;;;;;;;;;;5155467;27;20452;-73
2022/10/27 04:00:18;;;;;;;10.10;7.90;;;;;;;;;;5155655;27;20826;-73
2022/10/27 04:02:47;;;;;;;9.57;6.87;;;;;;;;;;5153751;27;20448;-73
2022/10/27 04:05:14;;;;;;;14.00;9.33;;;;;;;;;;5154375;27;20576;-73
2022/10/27 04:07:41;;;;;;;11.47;8.43;;;;;;;;;;5153400;27;20451;-73
2022/10/27 04:10:08;;;;;;;18.13;8.10;;;;;;;;;;5155426;27;20466;-73
2022/10/27 04:12:36;;;;;;;11.27;7.60;;;;;;;;;;5155156;27;20832;-73
2022/10/27 04:15:03;;;;;;;19.07;8.60;;;;;;;;;;5154552;27;20438;-73
2022/10/27 04:17:30;;;;;;;13.33;9.00;;;;;;;;;;5155087;27;20456;-73
2022/10/27 04:19:58;;;;;;;12.70;10.63;;;;;;;;;;5155093;27;20821;-73
2022/10/27 04:22:25;;;;;;;11.30;7.87;;;;;;;;;;5153709;27;20827;-73
2022/10/27 04:24:53;;;;;;;14.37;11.13;;;;;;;;;;5152249;27;20488;-73
2022/10/27 04:27:20;;;;;;;15.40;11.90;;;;;;;;;;5154901;27;20451;-73
2022/10/27 04:29:47;;;;;;;18.40;11.70;;;;;;;;;;5155082;27;20895;-73
2022/10/27 04:32:14;;;;;;;13.77;9.80;;;;;;;;;;5155172;27;20447;-73
2022/10/27 04:34:41;;;;;;;11.00;8.30;;;;;;;;;;5154089;27;20940;-73
2022/10/27 04:37:09;;;;;;;17.20;8.40;;;;;;;;;;5154832;27;20468;-73
2022/10/27 04:39:37;;;;;;;9.80;7.10;;;;;;;;;;5154751;27;20463;-73
2022/10/27 04:42:04;;;;;;;7.90;7.00;;;;;;;;;;5154691;27;20447;-73
2022/10/27 04:44:31;;;;;;;12.70;7.30;;;;;;;;;;5154093;27;20448;-72
2022/10/27 04:46:58;;;;;;;12.00;7.63;;;;;;;;;;5154783;27;20493;-72
2022/10/27 04:49:25;;;;;;;15.40;8.60;;;;;;;;;;5154512;27;20452;-72
2022/10/27 04:51:52;;;;;;;7.93;7.13;;;;;;;;;;5154690;27;20443;-72
2022/10/27 04:54:21;;;;;;;11.50;8.70;;;;;;;;;;5154157;27;20823;-72
2022/10/27 04:56:49;;;;;;;13.43;7.57;;;;;;;;;;5154370;27;20467;-72
2022/10/27 04:59:16;;;;;;;15.63;8.30;;;;;;;;;;5154585;27;20550;-72
2022/10/27 05:01:43;;;;;;;15.00;7.60;;;;;;;;;;5154187;27;20462;-72
2022/10/27 05:04:11;;;;;;;13.63;8.10;;;;;;;;;;5153903;27;20825;-72
2022/10/27 05:06:38;;;;;;;10.63;6.87;;;;;;;;;;5154080;27;20499;-72
2022/10/27 05:09:05;;;;;;;12.17;8.83;;;;;;;;;;5154389;27;20444;-72
2022/10/27 05:11:33;;;;;;;10.17;8.73;;;;;;;;;;5154131;27;20456;-72
2022/10/27 05:14:00;;;;;;;11.90;9.00;;;;;;;;;;5153828;27;20816;-73
2022/10/27 05:16:27;;;;;;;13.27;9.73;;;;;;;;;;5154036;27;20471;-73
2022/10/27 05:18:55;;;;;;;18.00;12.73;;;;;;;;;;5154172;27;20466;-73
2022/10/27 05:21:22;;;;;;;19.43;10.27;;;;;;;;;;5154252;27;20444;-72
2022/10/27 05:23:49;;;;;;;11.13;8.70;;;;;;;;;;5153542;27;20447;-72
2022/10/27 05:26:17;;;;;;;11.40;9.23;;;;;;;;;;5154090;27;20852;-72
2022/10/27 05:28:45;;;;;;;16.43;9.10;;;;;;;;;;5154072;27;20963;-72
2022/10/27 05:31:12;;;;;;;12.60;10.13;;;;;;;;;;5154142;27;20447;-72
2022/10/27 05:33:39;;;;;;;13.20;9.50;;;;;;;;;;5153907;27;20672;-73
2022/10/27 05:36:07;;;;;;;13.73;9.20;;;;;;;;;;5158239;27;20835;-73
2022/10/27 05:38:36;;;;;;;18.17;10.73;;;;;;;;;;5158123;27;20452;-73
2022/10/27 05:41:04;;;;;;;15.30;11.60;;;;;;;;;;5158155;27;20455;-72
2022/10/27 05:43:31;;;;;;;13.67;10.00;;;;;;;;;;5157588;27;20959;-72
2022/10/27 05:46:00;;;;;;;13.57;10.17;;;;;;;;;;5157778;27;20492;-73
2022/10/27 05:48:28;;;;;;;15.67;9.97;;;;;;;;;;5158100;27;20451;-72
2022/10/27 05:50:55;;;;;;;13.83;10.33;;;;;;;;;;5158182;27;20867;-72
2022/10/27 05:53:23;;;;;;;17.10;12.80;;;;;;;;;;5157879;27;20459;-73
2022/10/27 05:55:52;;;;;;;23.07;14.70;;;;;;;;;;5157223;27;20468;-72
2022/10/27 05:58:20;;;;;;;18.03;13.07;;;;;;;;;;5158131;27;21039;-72
2022/10/27 06:00:47;;;;;;;13.83;11.47;;;;;;;;;;5157982;27;20945;-72
2022/10/27 06:03:19;;;;;;;16.63;11.80;;;;;;;;;;5158133;27;20447;-72
2022/10/27 06:05:46;;;;;;;15.83;9.90;;;;;;;;;;5156223;27;21015;-72
2022/10/27 06:08:14;;;;;;;14.47;10.83;;;;;;;;;;5157685;27;21008;-72
2022/10/27 06:10:41;;;;;;;18.43;12.57;;;;;;;;;;5155867;27;20944;-72
2022/10/27 06:13:10;;;;;;;28.57;17.07;;;;;;;;;;5156715;27;20443;-72
2022/10/27 06:15:38;;;;;;;52.20;28.37;;;;;;;;;;5156696;27;20466;-72
2022/10/27 06:18:05;;;;;;;51.23;31.30;;;;;;;;;;5157366;27;20454;-73
2022/10/27 06:20:34;;;;;;;35.97;22.40;;;;;;;;;;5157192;27;20450;-72
2022/10/27 06:23:02;;;;;;;29.40;17.67;;;;;;;;;;5157056;27;20947;-72
2022/10/27 06:25:29;;;;;;;28.20;17.40;;;;;;;;;;5156441;27;20483;-72
2022/10/27 06:27:57;;;;;;;28.90;18.20;;;;;;;;;;5157099;27;20444;-72
2022/10/27 06:30:24;;;;;;;18.80;12.57;;;;;;;;;;5156996;27;20452;-72
2022/10/27 06:32:51;;;;;;;23.70;11.80;;;;;;;;;;5156901;27;20828;-72
2022/10/27 06:35:18;;;;;;;20.70;12.47;;;;;;;;;;5156462;27;20471;-72
2022/10/27 06:37:46;;;;;;;18.20;11.50;;;;;;;;;;5156799;27;20455;-72
2022/10/27 06:40:15;;;;;;;13.40;9.67;;;;;;;;;;5156659;27;20812;-72
2022/10/27 06:42:42;;;;;;;12.97;9.27;;;;;;;;;;5156613;27;20815;-72
2022/10/27 06:45:11;;;;;;;12.77;8.70;;;;;;;;;;5155771;27;20451;-73
2022/10/27 06:47:38;;;;;;;10.30;7.63;;;;;;;;;;5156593;27;20435;-73
2022/10/27 06:50:06;;;;;;;10.20;8.47;;;;;;;;;;5156572;27;20813;-72
2022/10/27 06:52:36;;;;;;;8.37;7.00;;;;;;;;;;5156381;27;21004;-72
2022/10/27 06:55:03;;;;;;;10.63;8.17;;;;;;;;;;5156315;27;20436;-72
2022/10/27 06:57:39;;;;;;;10.80;8.50;;;;;;;;;;5156579;27;20815;-72
2022/10/27 07:00:06;;;;;;;10.93;8.77;;;;;;;;;;5156511;27;20455;-72
2022/10/27 07:02:34;;;;;;;17.03;11.57;;;;;;;;;;5156101;27;20444;-72
2022/10/27 07:05:01;;;;;;;22.00;11.87;;;;;;;;;;5155965;27;20439;-72
2022/10/27 07:07:28;;;;;;;17.20;9.33;;;;;;;;;;5155871;27;20505;-72
2022/10/27 07:09:55;;;;;;;15.53;9.17;;;;;;;;;;5156716;27;20454;-72
2022/10/27 07:12:22;;;;;;;12.00;8.53;;;;;;;;;;5156215;27;20948;-72
2022/10/27 07:14:51;;;;;;;16.30;9.20;;;;;;;;;;5155967;27;20443;-72
2022/10/27 07:17:18;;;;;;;12.33;10.03;;;;;;;;;;5156529;27;20815;-72
2022/10/27 07:19:45;;;;;;;20.70;10.40;;;;;;;;;;5156403;27;20984;-72
2022/10/27 07:22:12;;;;;;;14.87;9.90;;;;;;;;;;5156260;27;20462;-72
2022/10/27 07:24:39;;;;;;;12.43;8.60;;;;;;;;;;5155628;27;20448;-72
2022/10/27 07:27:06;;;;;;;10.47;6.20;;;;;;;;;;5156074;27;20483;-72
2022/10/27 07:29:33;;;;;;;7.93;5.70;;;;;;;;;;5156063;27;20444;-72
2022/10/27 07:32:02;;;;;;;12.43;5.97;;;;;;;;;;5156239;27;20921;-72
2022/10/27 07:34:29;;;;;;;18.40;6.70;;;;;;;;;;5155401;27;20444;-72
2022/10/27 07:36:56;;;;;;;11.80;7.33;;;;;;;;;;5156037;27;20467;-72
2022/10/27 07:39:23;;;;;;;18.93;8.40;;;;;;;;;;5156068;27;20967;-72
2022/10/27 07:41:50;;;;;;;21.70;8.33;;;;;;;;;;5155979;27;20457;-72
2022/10/27 07:44:17;;;;;;;12.03;6.60;;;;;;;;;;5155301;27;20448;-72
2022/10/27 07:46:45;;;;;;;18.37;9.03;;;;;;;;;;5155681;27;21124;-72
2022/10/27 07:49:13;;;;;;;20.17;7.90;;;;;;;;;;5155867;27;20542;-72
2022/10/27 07:51:40;;;;;;;20.77;8.83;;;;;;;;;;5152197;27;20443;-72
2022/10/27 07:54:07;;;;;;;16.43;6.90;;;;;;;;;;5153931;27;20451;-72
2022/10/27 07:56:36;;;;;;;25.37;8.70;;;;;;;;;;5153942;27;20490;-72
2022/10/27 07:59:03;;;;;;;14.67;6.83;;;;;;;;;;5153451;27;20447;-72
2022/10/27 08:01:30;;;;;;;12.03;5.60;;;;;;;;;;5153510;27;20932;-72
2022/10/27 08:03:57;;;;;;;11.13;7.20;;;;;;;;;;5153679;27;20444;-73
2022/10/27 08:06:25;;;;;;;8.90;4.47;;;;;;;;;;5153470;27;20487;-72
2022/10/27 08:08:52;;;;;;;12.50;4.97;;;;;;;;;;5153651;27;20448;-72
2022/10/27 08:11:21;;;;;;;10.10;4.83;;;;;;;;;;5153590;27;20474;-72
2022/10/27 08:13:48;;;;;;;6.73;4.50;;;;;;;;;;5153091;27;20873;-72
2022/10/27 08:16:15;;;;;;;7.40;4.10;;;;;;;;;;5153780;27;20471;-72
2022/10/27 08:18:43;;;;;;;8.20;4.33;;;;;;;;;;5153682;27;20454;-72
2022/10/27 08:21:10;;;;;;;8.37;4.30;;;;;;;;;;5153232;27;20459;-72
2022/10/27 08:23:40;;;;;;;8.13;3.73;;;;;;;;;;5153687;27;20810;-72
2022/10/27 08:26:07;;;;;;;7.60;3.40;;;;;;;;;;5151736;27;20551;-72
2022/10/27 08:28:35;;;;;;;6.77;3.40;;;;;;;;;;5152958;27;20440;-72
2022/10/27 08:31:02;;;;;;;4.13;3.33;;;;;;;;;;5152061;27;20456;-72
2022/10/27 08:33:29;;;;;;;8.93;4.53;;;;;;;;;;5152777;27;20444;-73
2022/10/27 08:35:56;;;;;;;14.10;4.27;;;;;;;;;;5153143;27;20467;-73
2022/10/27 08:38:23;;;;;;;7.70;4.40;;;;;;;;;;5153426;27;20941;-73
2022/10/27 08:41:05;;;;;;;6.53;3.43;;;;;;;;;;5134040;27;20512;-72
2022/10/27 08:43:47;;;;;;;11.37;4.47;;;;;;;;;;5131782;27;20457;-72
2022/10/27 08:46:17;;;;;;;7.13;4.90;;;;;;;;;;5130158;27;20484;-72
2022/10/27 08:48:45;;;;;;;11.27;4.70;;;;;;;;;;5132161;27;20459;-73
2022/10/27 08:51:14;;;;;;;9.80;4.70;;;;;;;;;;5131801;27;20850;-73
2022/10/27 08:53:42;;;;;;;6.97;4.23;;;;;;;;;;5131926;27;20453;-73
2022/10/27 08:56:11;;;;;;;6.63;3.20;;;;;;;;;;5132335;27;20465;-73
2022/10/27 08:58:39;;;;;;;9.20;4.00;;;;;;;;;;5131828;27;20445;-73
2022/10/27 09:01:15;;;;;;;4.50;3.30;;;;;;;;;;5132367;27;20455;-73
2022/10/27 09:03:48;;;;;;;5.90;3.07;;;;;;;;;;5131849;27;20829;-72
2022/10/27 09:06:18;;;;;;;10.57;3.93;;;;;;;;;;5131423;27;20828;-72
2022/10/27 09:08:48;;;;;;;8.47;3.30;;;;;;;;;;5131712;27;20470;-72
2022/10/27 09:11:21;;;;;;;7.73;3.43;;;;;;;;;;5132028;27;20483;-72
2022/10/27 09:14:03;;;;;;;5.20;2.63;;;;;;;;;;5131000;27;20448;-72
2022/10/27 09:16:34;;;;;;;4.63;2.47;;;;;;;;;;5129785;27;20472;-72
2022/10/27 09:19:03;;;;;;;4.77;2.37;;;;;;;;;;5131936;27;20814;-72
2022/10/27 09:21:33;;;;;;;3.50;2.50;;;;;;;;;;5132009;28;20938;-72
2022/10/27 09:24:02;;;;;;;4.90;2.70;;;;;;;;;;5131735;28;20854;-72
2022/10/27 09:26:32;;;;;;;3.40;2.33;;;;;;;;;;5131383;28;20491;-72
2022/10/27 09:29:02;;;;;;;6.40;2.87;;;;;;;;;;5132115;28;20455;-72
2022/10/27 09:31:34;;;;;;;7.10;2.60;;;;;;;;;;5131750;28;20452;-72
2022/10/27 09:34:05;;;;;;;4.67;2.30;;;;;;;;;;5131144;28;20763;-72
2022/10/27 09:36:32;;;;;;;4.13;2.77;;;;;;;;;;5131823;28;20492;-72
2022/10/27 09:38:59;;;;;;;5.97;2.77;;;;;;;;;;5131723;28;20440;-72
2022/10/27 09:41:27;;;;;;;3.73;2.63;;;;;;;;;;5131233;28;20969;-72
2022/10/27 09:43:55;;;;;;;5.40;3.00;;;;;;;;;;5131376;28;20449;-72
2022/10/27 09:46:24;;;;;;;12.00;3.60;;;;;;;;;;5131685;28;20494;-72
2022/10/27 09:48:52;;;;;;;6.37;3.60;;;;;;;;;;5131246;28;20449;-72
2022/10/27 09:51:21;;;;;;;7.40;3.93;;;;;;;;;;5131669;28;20448;-72
2022/10/27 09:53:49;;;;;;;10.83;3.13;;;;;;;;;;5131103;28;20512;-72
2022/10/27 09:56:18;;;;;;;5.93;3.43;;;;;;;;;;5131362;28;20817;-72
2022/10/27 09:58:56;;;;;;;14.83;4.93;;;;;;;;;;5131696;28;20467;-72
2022/10/27 10:01:24;;;;;;;5.47;3.13;;;;;;;;;;5131803;28;20452;-72
2022/10/27 10:03:55;;;;;;;5.60;3.20;;;;;;;;;;5130764;28;20452;-73
2022/10/27 10:06:28;;;;;;;9.60;4.27;;;;;;;;;;5132476;28;20495;-72
2022/10/27 10:08:55;;;;;;;13.00;4.67;;;;;;;;;;5132673;28;20784;-72
2022/10/27 10:11:23;;;;;;;8.20;4.13;;;;;;;;;;5132222;28;20487;-72
2022/10/27 10:13:57;;;;;;;12.83;3.93;;;;;;;;;;5132431;28;20453;-72
2022/10/27 10:16:27;;;;;;;10.73;4.10;;;;;;;;;;5132638;28;20476;-72
2022/10/27 10:19:01;;;;;;;7.97;4.20;;;;;;;;;;5132808;28;20444;-72
2022/10/27 10:21:43;;;;;;;13.90;5.03;;;;;;;;;;5134587;27;20953;-72
2022/10/27 10:24:16;;;;;;;6.03;4.40;;;;;;;;;;5134444;27;20448;-72
2022/10/27 10:26:46;;;;;;;7.40;3.47;;;;;;;;;;5136369;27;20491;-72
2022/10/27 10:29:21;;;;;;;9.40;3.33;;;;;;;;;;5136573;27;20505;-72
2022/10/27 10:31:49;;;;;;;8.30;3.77;;;;;;;;;;5134869;27;20456;-73
2022/10/27 10:34:28;;;;;;;6.50;3.87;;;;;;;;;;5136093;27;20449;-72
2022/10/27 10:36:55;;;;;;;4.03;2.90;;;;;;;;;;5136393;27;20567;-73
2022/10/27 10:39:23;;;;;;;9.50;3.70;;;;;;;;;;5136256;27;20976;-72
2022/10/27 10:42:12;;;;;;;8.97;3.70;;;;;;;;;;5136246;27;20959;-72
2022/10/27 10:44:39;;;;;;;8.33;3.40;;;;;;;;;;5135843;27;20459;-73
2022/10/27 10:47:20;;;;;;;8.70;4.80;;;;;;;;;;5135773;27;20484;-73
2022/10/27 10:49:50;;;;;;;7.17;3.30;;;;;;;;;;5136059;27;20448;-71
2022/10/27 10:52:19;;;;;;;4.57;3.00;;;;;;;;;;5136117;27;20945;-72
2022/10/27 10:54:46;;;;;;;4.77;2.93;;;;;;;;;;5135620;27;20433;-72
2022/10/27 10:57:23;;;;;;;6.53;2.57;;;;;;;;;;5135624;27;20503;-72
2022/10/27 10:59:53;;;;;;;4.83;2.90;;;;;;;;;;5136009;27;20448;-73
2022/10/27 11:02:26;;;;;;;6.63;2.73;;;;;;;;;;5134028;27;20444;-72
2022/10/27 11:04:53;;;;;;;6.07;2.87;;;;;;;;;;5135275;27;20452;-72
2022/10/27 11:07:24;;;;;;;5.50;3.30;;;;;;;;;;5134210;27;20481;-72
2022/10/27 11:09:55;;;;;;;5.37;2.73;;;;;;;;;;5135617;27;20445;-72
2022/10/27 11:12:25;;;;;;;9.70;4.30;;;;;;;;;;5135772;27;20471;-73
2022/10/27 11:14:53;;;;;;;6.30;3.60;;;;;;;;;;5135331;27;20455;-76
2022/10/27 11:17:21;;;;;;;7.33;3.03;;;;;;;;;;5135852;27;20452;-73
2022/10/27 11:19:51;;;;;;;4.50;2.87;;;;;;;;;;5141359;27;20444;-73
2022/10/27 11:22:19;;;;;;;6.57;3.30;;;;;;;;;;5156296;27;20455;-72
2022/10/27 11:24:50;;;;;;;7.87;3.13;;;;;;;;;;5154476;27;20452;-72
2022/10/27 11:27:18;;;;;;;6.57;4.00;;;;;;;;;;5156029;27;20475;-72
2022/10/27 11:29:50;;;;;;;4.70;3.03;;;;;;;;;;5156073;27;20447;-72
2022/10/27 11:32:19;;;;;;;6.67;3.30;;;;;;;;;;5155798;27;20503;-72
2022/10/27 11:34:50;;;;;;;7.00;3.00;;;;;;;;;;5155520;27;20455;-73
2022/10/27 11:37:22;;;;;;;4.90;3.07;;;;;;;;;;5154584;27;20444;-72
2022/10/27 11:39:55;;;;;;;7.97;2.93;;;;;;;;;;5155838;27;20831;-72
2022/10/27 11:42:28;;;;;;;12.60;5.00;;;;;;;;;;5156057;27;20953;-72
2022/10/27 11:45:01;;;;;;;17.00;5.40;;;;;;;;;;5155263;27;20454;-72
2022/10/27 11:47:31;;;;;;;6.93;3.87;;;;;;;;;;5155187;27;20830;-73
2022/10/27 11:50:02;;;;;;;8.87;4.17;;;;;;;;;;5155803;27;20455;-73
2022/10/27 11:52:36;;;;;;;4.70;3.10;;;;;;;;;;5155625;27;20500;-74
2022/10/27 11:55:03;;;;;;;7.73;3.70;;;;;;;;;;5155295;27;20463;-73
2022/10/27 11:57:35;;;;;;;10.30;4.30;;;;;;;;;;5155626;27;20462;-73
2022/10/27 12:00:10;;;;;;;10.10;4.27;;;;;;;;;;5155689;27;20455;-73
2022/10/27 12:02:51;;;;;;;6.43;3.47;;;;;;;;;;5155370;27;20447;-72
2022/10/27 12:05:21;;;;;;;5.93;2.90;;;;;;;;;;5154988;27;20471;-72
2022/10/27 12:07:57;;;;;;;8.53;3.93;;;;;;;;;;5155376;27;21018;-72
2022/10/27 12:10:29;;;;;;;12.53;4.83;;;;;;;;;;5155424;27;20443;-72
2022/10/27 12:12:59;;;;;;;7.57;3.60;;;;;;;;;;5155172;27;20459;-72
2022/10/27 12:15:29;;;;;;;6.40;3.97;;;;;;;;;;5153312;27;20484;-72
2022/10/27 12:18:00;;;;;;;3.43;2.77;;;;;;;;;;5155329;27;20435;-72
2022/10/27 12:20:31;;;;;;;4.00;2.37;;;;;;;;;;5153459;27;20447;-73
2022/10/27 12:23:02;;;;;;;6.20;3.17;;;;;;;;;;5154729;27;20923;-73
2022/10/27 12:25:33;;;;;;;10.57;3.77;;;;;;;;;;5152399;27;20479;-72
2022/10/27 12:28:01;;;;;;;7.80;4.13;;;;;;;;;;5155071;27;20491;-73
2022/10/27 12:30:28;;;;;;;4.87;3.40;;;;;;;;;;5154893;27;20898;-72
2022/10/27 12:32:58;;;;;;;8.03;3.20;;;;;;;;;;5154879;27;20447;-72
2022/10/27 12:35:27;;;;;;;10.43;4.33;;;;;;;;;;5154238;27;20476;-72
2022/10/27 12:37:59;;;;;;;7.17;3.77;;;;;;;;;;5154811;27;20439;-72
2022/10/27 12:40:31;;;;;;;3.67;3.10;;;;;;;;;;5154642;27;20447;-72
2022/10/27 12:43:02;;;;;;;14.33;4.10;;;;;;;;;;5154403;27;20451;-73
2022/10/27 12:45:36;;;;;;;4.37;2.97;;;;;;;;;;5153859;27;20467;-72
2022/10/27 12:48:09;;;;;;;11.97;3.90;;;;;;;;;;5154817;27;20479;-72
2022/10/27 12:50:43;;;;;;;6.03;3.80;;;;;;;;;;5153276;27;20466;-73
2022/10/27 12:53:19;;;;;;;6.70;3.57;;;;;;;;;;5154581;27;20446;-72
2022/10/27 12:55:51;;;;;;;6.27;3.70;;;;;;;;;;5154187;27;20467;-73
2022/10/27 12:58:22;;;;;;;6.57;3.67;;;;;;;;;;5154477;27;20444;-73
2022/10/27 13:00:52;;;;;;;9.53;4.20;;;;;;;;;;5154295;27;20463;-73
2022/10/27 13:03:48;;;;;;;8.20;3.90;;;;;;;;;;5153945;27;20451;-72
2022/10/27 13:06:23;;;;;;;13.77;4.77;;;;;;;;;;5154639;27;20475;-72
2022/10/27 13:09:00;;;;;;;11.00;4.40;;;;;;;;;;5155027;27;20490;-72
2022/10/27 13:11:39;;;;;;;11.67;4.93;;;;;;;;;;5155289;27;20459;-72
2022/10/27 13:14:25;;;;;;;8.90;4.03;;;;;;;;;;5154850;27;20945;-72
2022/10/27 13:16:56;;;;;;;9.33;4.83;;;;;;;;;;5153911;27;20470;-72
2022/10/27 13:19:26;;;;;;;11.80;4.63;;;;;;;;;;5154248;27;20440;-72
2022/10/27 13:21:59;;;;;;;13.10;5.50;;;;;;;;;;5154307;27;20443;-72
2022/10/27 13:24:30;;;;;;;5.73;4.10;;;;;;;;;;5151962;27;20448;-72
2022/10/27 13:27:03;;;;;;;12.77;5.60;;;;;;;;;;5152394;27;20462;-72
2022/10/27 13:29:36;;;;;;;8.13;4.47;;;;;;;;;;5155103;27;20483;-72
2022/10/27 13:32:33;;;;;;;8.20;4.33;;;;;;;;;;5155171;27;20467;-72
2022/10/27 13:35:25;;;;;;;10.63;4.87;;;;;;;;;;5050557;28;20831;-72
2022/10/27 13:38:17;;;;;;;10.20;4.90;;;;;;;;;;5135609;27;20466;-72
2022/10/27 13:40:44;;;;;;;9.03;5.20;;;;;;;;;;5154753;27;20962;-72
2022/10/27 13:43:28;;;;;;;8.63;3.83;;;;;;;;;;5154490;27;20853;-72
2022/10/27 13:45:57;;;;;;;8.40;4.90;;;;;;;;;;5135078;27;20527;-72
2022/10/27 13:48:34;;;;;;;8.90;5.10;;;;;;;;;;5154631;27;20483;-72
2022/10/27 13:51:23;;;;;;;8.17;5.47;;;;;;;;;;5154306;27;20450;-72
2022/10/27 13:53:50;;;;;;;10.10;5.20;;;;;;;;;;5153359;27;20448;-72
2022/10/27 13:56:38;;;;;;;11.83;4.67;;;;;;;;;;5157089;27;20474;-73
2022/10/27 13:59:07;;;;;;;8.00;5.20;;;;;;;;;;5157902;27;20504;-73
2022/10/27 14:01:43;;;;;;;10.60;6.33;;;;;;;;;;5157749;27;20455;-73
2022/10/27 14:04:16;;;;;;;8.13;4.00;;;;;;;;;;5156733;27;20471;-72
2022/10/27 14:06:44;;;;;;;10.87;5.27;;;;;;;;;;5156881;27;20471;-73
2022/10/27 14:09:29;;;;;;;8.90;4.77;;;;;;;;;;5156197;27;20487;-73
2022/10/27 14:11:59;;;;;;;6.30;4.43;;;;;;;;;;5157655;27;20936;-73
2022/10/27 14:14:28;;;;;;;11.43;5.77;;;;;;;;;;5157025;27;20439;-72
2022/10/27 14:16:58;;;;;;;8.67;4.90;;;;;;;;;;5157706;27;20463;-72
2022/10/27 14:19:27;;;;;;;11.80;6.20;;;;;;;;;;5156769;27;20443;-72
2022/10/27 14:21:56;;;;;;;12.50;5.50;;;;;;;;;;5157890;27;20514;-72
2022/10/27 14:24:25;;;;;;;8.93;4.77;;;;;;;;;;5155494;27;20451;-73
2022/10/27 14:26:57;;;;;;;9.67;5.37;;;;;;;;;;5157442;27;20474;-72
2022/10/27 14:29:25;;;;;;;9.83;5.20;;;;;;;;;;5157254;27;20495;-73
2022/10/27 14:31:52;;;;;;;10.70;5.33;;;;;;;;;;5155561;27;20447;-72
2022/10/27 14:34:23;;;;;;;10.27;5.70;;;;;;;;;;5157066;27;20819;-73
2022/10/27 14:36:51;;;;;;;12.80;5.40;;;;;;;;;;5157104;27;20478;-73
2022/10/27 14:39:23;;;;;;;9.07;4.83;;;;;;;;;;5157124;27;20932;-73
2022/10/27 14:41:51;;;;;;;6.43;4.40;;;;;;;;;;5157292;27;20452;-73
2022/10/27 14:44:22;;;;;;;8.43;4.90;;;;;;;;;;5156564;27;20454;-73
2022/10/27 14:46:50;;;;;;;8.90;6.67;;;;;;;;;;5157037;27;20862;-73
2022/10/27 14:49:19;;;;;;;5.83;4.70;;;;;;;;;;5156868;27;20491;-73
2022/10/27 14:51:49;;;;;;;11.30;7.10;;;;;;;;;;5156825;27;20456;-73